createdAt,value
2019-01-20T00:00:30.771Z,17.00
2019-01-20T00:02:59.339Z,17.57
2019-01-20T00:05:28.271Z,20.37
2019-01-20T00:07:56.902Z,18.52
2019-01-20T00:10:25.497Z,17.00
2019-01-20T00:12:54.063Z,19.15
2019-01-20T00:15:22.728Z,19.82
2019-01-20T00:17:51.300Z,17.65
2019-01-20T00:20:19.940Z,18.35
2019-01-20T00:22:48.563Z,18.10
2019-01-20T00:25:17.391Z,17.15
2019-01-20T00:27:45.970Z,17.85
2019-01-20T00:30:18.411Z,18.32
2019-01-20T00:32:46.986Z,17.77
2019-01-20T00:35:15.998Z,19.23
2019-01-20T00:37:44.574Z,22.13
2019-01-20T00:40:16.895Z,19.05
2019-01-20T00:42:45.639Z,18.90
2019-01-20T00:45:16.576Z,20.10
2019-01-20T00:47:45.154Z,19.90
2019-01-20T00:50:15.471Z,18.92
2019-01-20T00:52:44.104Z,21.07
2019-01-20T00:55:17.098Z,20.60
2019-01-20T00:57:45.842Z,18.37
2019-01-20T01:00:23.571Z,18.48
2019-01-20T01:02:52.283Z,18.82
2019-01-20T01:05:21.386Z,18.00
2019-01-20T01:07:51.122Z,19.12
2019-01-20T01:10:19.931Z,18.23
2019-01-20T01:12:49.467Z,19.70
2019-01-20T01:15:18.171Z,19.67
2019-01-20T01:17:46.763Z,18.10
2019-01-20T01:20:17.948Z,17.98
2019-01-20T01:22:46.983Z,18.60
2019-01-20T01:25:16.663Z,21.07
2019-01-20T01:27:45.389Z,18.60
2019-01-20T01:30:16.870Z,19.32
2019-01-20T01:32:45.539Z,17.75
2019-01-20T01:35:14.350Z,16.87
2019-01-20T01:37:43.083Z,17.10
2019-01-20T01:40:14.202Z,15.55
2019-01-20T01:42:42.923Z,17.17
2019-01-20T01:45:14.402Z,15.58
2019-01-20T01:47:42.995Z,15.83
2019-01-20T01:50:12.309Z,15.78
2019-01-20T01:52:40.903Z,18.25
2019-01-20T01:55:10.913Z,19.12
2019-01-20T01:57:39.593Z,17.42
2019-01-20T02:00:17.359Z,15.32
2019-01-20T02:02:45.960Z,15.93
2019-01-20T02:05:14.715Z,16.62
2019-01-20T02:07:43.481Z,16.95
2019-01-20T02:10:15.193Z,17.57
2019-01-20T02:12:43.851Z,18.98
2019-01-20T02:15:14.675Z,17.77
2019-01-20T02:17:43.327Z,19.35
2019-01-20T02:20:14.639Z,18.55
2019-01-20T02:22:43.517Z,17.80
2019-01-20T02:25:12.622Z,16.93
2019-01-20T02:27:41.215Z,17.20
2019-01-20T02:30:15.449Z,16.73
2019-01-20T02:32:44.035Z,14.05
2019-01-20T02:35:12.610Z,14.85
2019-01-20T02:37:41.238Z,14.13
2019-01-20T02:40:12.648Z,14.07
2019-01-20T02:42:41.238Z,14.50
2019-01-20T02:45:12.344Z,14.60
2019-01-20T02:47:40.998Z,14.40
2019-01-20T02:50:12.685Z,13.03
2019-01-20T02:52:41.335Z,13.30
2019-01-20T02:55:10.575Z,14.20
2019-01-20T02:57:39.172Z,13.85
2019-01-20T03:00:10.819Z,14.10
2019-01-20T03:02:39.476Z,13.30
2019-01-20T03:05:10.787Z,12.90
2019-01-20T03:07:39.392Z,13.28
2019-01-20T03:10:11.127Z,14.75
2019-01-20T03:12:39.728Z,13.70
2019-01-20T03:15:11.076Z,11.70
2019-01-20T03:17:39.687Z,14.07
2019-01-20T03:20:11.495Z,13.53
2019-01-20T03:22:40.154Z,14.83
2019-01-20T03:25:12.082Z,13.00
2019-01-20T03:27:40.673Z,14.30
2019-01-20T03:30:12.054Z,13.38
2019-01-20T03:32:40.649Z,13.05
2019-01-20T03:35:10.350Z,13.15
2019-01-20T03:37:38.938Z,13.95
2019-01-20T03:40:10.855Z,13.62
2019-01-20T03:42:39.451Z,12.90
2019-01-20T03:45:11.333Z,12.47
2019-01-20T03:47:39.919Z,12.93
2019-01-20T03:50:10.938Z,14.20
2019-01-20T03:52:39.593Z,12.88
2019-01-20T03:55:11.109Z,13.78
2019-01-20T03:57:39.699Z,13.48
2019-01-20T04:00:11.342Z,13.35
2019-01-20T04:02:40.103Z,13.03
2019-01-20T04:05:09.406Z,13.48
2019-01-20T04:07:38.004Z,12.68
2019-01-20T04:10:09.483Z,12.95
2019-01-20T04:12:38.086Z,14.40
2019-01-20T04:15:07.888Z,12.85
2019-01-20T04:17:36.540Z,13.32
2019-01-20T04:20:07.824Z,13.48
2019-01-20T04:22:36.424Z,13.05
2019-01-20T04:25:08.063Z,14.05
2019-01-20T04:27:36.720Z,14.33
2019-01-20T04:30:08.032Z,13.70
2019-01-20T04:32:36.636Z,14.35
2019-01-20T04:35:06.990Z,13.75
2019-01-20T04:37:35.591Z,15.70
2019-01-20T04:40:07.223Z,16.40
2019-01-20T04:42:35.867Z,16.93
2019-01-20T04:45:07.255Z,15.72
2019-01-20T04:47:35.848Z,14.63
2019-01-20T04:50:07.524Z,14.33
2019-01-20T04:52:36.191Z,14.03
2019-01-20T04:55:07.121Z,14.20
2019-01-20T04:57:35.879Z,14.28
2019-01-20T05:00:07.415Z,14.13
2019-01-20T05:02:36.104Z,15.70
2019-01-20T05:05:05.824Z,14.18
2019-01-20T05:07:34.479Z,14.30
2019-01-20T05:10:03.327Z,14.33
2019-01-20T05:12:37.604Z,13.50
2019-01-20T05:15:02.319Z,14.60
2019-01-20T05:17:30.980Z,12.50
2019-01-20T05:19:59.552Z,14.20
2019-01-20T05:22:28.239Z,15.25
2019-01-20T05:24:56.898Z,14.40
2019-01-20T05:27:25.494Z,13.50
2019-01-20T05:29:54.091Z,16.15
2019-01-20T05:32:22.705Z,14.68
2019-01-20T05:34:51.339Z,13.68
2019-01-20T05:37:19.911Z,14.15
2019-01-20T05:39:48.703Z,14.20
2019-01-20T05:42:17.293Z,15.63
2019-01-20T05:44:45.899Z,15.03
2019-01-20T05:47:14.534Z,14.65
2019-01-20T05:49:43.313Z,17.07
2019-01-20T05:52:12.053Z,14.95
2019-01-20T05:54:40.638Z,14.83
2019-01-20T05:57:09.286Z,13.85
2019-01-20T05:59:37.914Z,14.55
2019-01-20T06:02:06.492Z,15.30
2019-01-20T06:04:35.078Z,14.43
2019-01-20T06:07:03.664Z,15.50
2019-01-20T06:09:32.251Z,14.53
2019-01-20T06:12:00.848Z,14.58
2019-01-20T06:14:29.463Z,15.98
2019-01-20T06:16:58.051Z,14.58
2019-01-20T06:19:26.655Z,14.60
2019-01-20T06:21:55.347Z,14.70
2019-01-20T06:24:23.947Z,13.83
2019-01-20T06:26:52.583Z,14.00
2019-01-20T06:29:21.172Z,13.88
2019-01-20T06:31:49.748Z,15.68
2019-01-20T06:34:18.358Z,17.25
2019-01-20T06:36:46.936Z,15.85
2019-01-20T06:39:15.526Z,15.68
2019-01-20T06:41:44.150Z,15.05
2019-01-20T06:44:12.751Z,16.60
2019-01-20T06:46:41.340Z,17.10
2019-01-20T06:49:09.939Z,17.67
2019-01-20T06:51:38.519Z,16.23
2019-01-20T06:54:07.151Z,17.27
2019-01-20T06:56:35.782Z,16.23
2019-01-20T06:59:04.440Z,15.50
2019-01-20T07:01:33.031Z,15.68
2019-01-20T07:04:01.677Z,13.83
2019-01-20T07:06:30.262Z,15.60
2019-01-20T07:08:58.884Z,15.20
2019-01-20T07:11:27.476Z,15.85
2019-01-20T07:13:56.113Z,14.50
2019-01-20T07:16:24.723Z,14.60
2019-01-20T07:18:53.299Z,14.18
2019-01-20T07:21:21.867Z,15.63
2019-01-20T07:23:50.586Z,15.90
2019-01-20T07:26:19.169Z,13.70
2019-01-20T07:28:47.760Z,15.20
2019-01-20T07:31:16.330Z,15.15
2019-01-20T07:33:44.960Z,13.83
2019-01-20T07:36:13.666Z,13.53
2019-01-20T07:38:42.259Z,16.62
2019-01-20T07:41:10.919Z,14.55
2019-01-20T07:43:39.525Z,17.65
2019-01-20T07:46:08.120Z,18.40
2019-01-20T07:48:36.727Z,17.50
2019-01-20T07:51:05.359Z,19.17
2019-01-20T07:53:34.003Z,20.30
2019-01-20T07:56:02.723Z,20.88
2019-01-20T07:58:31.338Z,19.35
2019-01-20T08:00:59.999Z,18.87
2019-01-20T08:03:28.588Z,16.17
2019-01-20T08:05:57.251Z,17.60
2019-01-20T08:08:25.850Z,18.07
2019-01-20T08:10:54.573Z,16.55
2019-01-20T08:13:24.412Z,17.50
2019-01-20T08:15:53.266Z,16.40
2019-01-20T08:18:21.947Z,17.95
2019-01-20T08:20:51.025Z,17.82
2019-01-20T08:23:19.594Z,17.32
2019-01-20T08:25:48.193Z,16.95
2019-01-20T08:28:16.763Z,16.48
2019-01-20T08:30:45.415Z,17.23
2019-01-20T08:33:13.991Z,18.45
2019-01-20T08:35:42.579Z,19.65
2019-01-20T08:38:11.219Z,19.55
2019-01-20T08:40:39.802Z,20.43
2019-01-20T08:43:08.379Z,22.25
2019-01-20T08:45:49.075Z,21.05
2019-01-20T08:48:20.950Z,21.27
2019-01-20T08:50:49.543Z,17.62
2019-01-20T08:53:18.110Z,19.00
2019-01-20T08:55:46.751Z,19.27
2019-01-20T08:58:15.652Z,18.60
2019-01-20T09:00:44.311Z,17.50
2019-01-20T09:03:12.891Z,24.43
2019-01-20T09:05:41.487Z,28.00
2019-01-20T09:08:10.059Z,36.13
2019-01-20T09:10:38.700Z,30.90
2019-01-20T09:13:08.457Z,27.90
2019-01-20T09:15:37.048Z,26.95
2019-01-20T09:18:06.278Z,25.88
2019-01-20T09:20:34.876Z,27.32
2019-01-20T09:23:03.444Z,26.97
2019-01-20T09:25:32.066Z,27.40
2019-01-20T09:28:00.678Z,26.97
2019-01-20T09:30:29.258Z,26.40
2019-01-20T09:32:57.831Z,27.60
2019-01-20T09:35:27.387Z,25.17
2019-01-20T09:37:56.067Z,26.23
2019-01-20T09:40:24.657Z,27.90
2019-01-20T09:42:53.231Z,27.13
2019-01-20T09:45:29.890Z,25.68
2019-01-20T09:47:58.800Z,22.87
2019-01-20T09:50:27.532Z,24.10
2019-01-20T09:52:56.095Z,23.70
2019-01-20T09:55:24.690Z,22.02
2019-01-20T09:57:53.255Z,21.52
2019-01-20T10:00:24.587Z,23.32
2019-01-20T10:02:53.291Z,22.70
2019-01-20T10:05:21.883Z,20.75
2019-01-20T10:07:51.414Z,22.77
2019-01-20T10:10:20.080Z,23.22
2019-01-20T10:12:48.651Z,24.43
2019-01-20T10:15:17.803Z,25.92
2019-01-20T10:17:46.440Z,26.23
2019-01-20T10:20:23.438Z,28.12
2019-01-20T10:22:52.007Z,27.67
2019-01-20T10:25:20.598Z,26.87
2019-01-20T10:27:49.171Z,28.15
2019-01-20T10:30:28.871Z,29.40
2019-01-20T10:32:57.443Z,22.90
2019-01-20T10:35:27.675Z,22.85
2019-01-20T10:37:57.953Z,22.52
2019-01-20T10:40:26.547Z,23.35
2019-01-20T10:42:55.159Z,23.18
2019-01-20T10:45:23.711Z,20.72
2019-01-20T10:47:52.274Z,22.25
2019-01-20T10:50:21.012Z,20.17
2019-01-20T10:52:49.653Z,20.65
2019-01-20T10:55:18.238Z,21.05
2019-01-20T10:57:46.810Z,21.82
2019-01-20T11:00:27.062Z,20.50
2019-01-20T11:02:55.706Z,19.42
2019-01-20T11:05:30.803Z,20.65
2019-01-20T11:07:57.393Z,20.50
2019-01-20T11:10:25.983Z,18.05
2019-01-20T11:12:54.555Z,18.57
2019-01-20T11:15:23.212Z,20.12
2019-01-20T11:17:52.908Z,18.32
2019-01-20T11:20:23.218Z,24.20
2019-01-20T11:22:51.792Z,19.80
2019-01-20T11:25:26.020Z,20.95
2019-01-20T11:27:54.588Z,21.02
2019-01-20T11:30:23.174Z,22.13
2019-01-20T11:32:51.743Z,25.40
2019-01-20T11:35:20.559Z,20.05
2019-01-20T11:37:49.391Z,16.65
2019-01-20T11:40:17.958Z,17.07
2019-01-20T11:42:46.554Z,15.55
2019-01-20T11:45:20.400Z,14.43
2019-01-20T11:47:49.055Z,17.67
2019-01-20T11:50:17.771Z,16.50
2019-01-20T11:52:46.363Z,15.90
2019-01-20T11:55:19.929Z,13.18
2019-01-20T11:57:48.515Z,15.18
2019-01-20T12:00:28.448Z,16.77
2019-01-20T12:02:57.108Z,14.75
2019-01-20T12:05:25.842Z,14.28
2019-01-20T12:07:54.434Z,14.20
2019-01-20T12:10:23.080Z,13.98
2019-01-20T12:12:56.057Z,12.80
2019-01-20T12:15:24.626Z,11.97
2019-01-20T12:17:53.214Z,14.20
2019-01-20T12:20:21.788Z,11.45
2019-01-20T12:22:50.380Z,11.97
2019-01-20T12:25:19.987Z,10.68
2019-01-20T12:27:48.575Z,11.70
2019-01-20T12:30:28.723Z,12.18
2019-01-20T12:32:57.309Z,11.53
2019-01-20T12:35:26.010Z,12.73
2019-01-20T12:37:54.671Z,12.55
2019-01-20T12:40:25.893Z,10.72
2019-01-20T12:42:54.476Z,12.10
2019-01-20T12:45:23.043Z,10.18
2019-01-20T12:47:51.633Z,14.98
2019-01-20T12:50:20.269Z,12.28
2019-01-20T12:52:48.854Z,11.95
2019-01-20T12:55:17.559Z,11.03
2019-01-20T12:57:46.146Z,12.40
2019-01-20T13:00:19.251Z,12.28
2019-01-20T13:02:48.078Z,10.88
2019-01-20T13:05:16.819Z,11.85
2019-01-20T13:07:45.398Z,12.53
2019-01-20T13:10:18.431Z,12.75
2019-01-20T13:12:47.985Z,13.32
2019-01-20T13:15:19.594Z,15.70
2019-01-20T13:17:48.250Z,12.95
2019-01-20T13:20:18.959Z,16.02
2019-01-20T13:22:47.615Z,14.63
2019-01-20T13:25:18.625Z,17.30
2019-01-20T13:27:47.216Z,12.00
2019-01-20T13:30:18.226Z,12.80
2019-01-20T13:32:46.816Z,13.40
2019-01-20T13:35:16.218Z,13.30
2019-01-20T13:37:47.647Z,12.68
2019-01-20T13:40:22.247Z,13.55
2019-01-20T13:42:50.828Z,13.38
2019-01-20T13:45:19.468Z,12.73
2019-01-20T13:47:48.910Z,14.53
2019-01-20T13:50:19.551Z,12.30
2019-01-20T13:52:48.146Z,12.70
2019-01-20T13:55:17.646Z,12.63
2019-01-20T13:57:46.314Z,12.85
2019-01-20T14:00:23.344Z,12.37
2019-01-20T14:02:51.935Z,11.50
2019-01-20T14:05:20.498Z,12.03
2019-01-20T14:07:49.150Z,13.10
2019-01-20T14:10:22.334Z,12.68
2019-01-20T14:12:50.996Z,11.03
2019-01-20T14:15:19.563Z,11.80
2019-01-20T14:17:48.155Z,12.85
2019-01-20T14:20:27.163Z,15.45
2019-01-20T14:22:55.827Z,27.85
2019-01-20T14:25:30.930Z,17.87
2019-01-20T14:28:00.350Z,13.90
2019-01-20T14:30:33.167Z,14.23
2019-01-20T14:33:01.754Z,12.20
2019-01-20T14:35:30.387Z,14.83
2019-01-20T14:37:58.980Z,14.18
2019-01-20T14:40:27.538Z,15.30
2019-01-20T14:42:56.133Z,13.62
2019-01-20T14:45:24.774Z,13.62
2019-01-20T14:47:53.363Z,13.75
2019-01-20T14:50:24.179Z,16.12
2019-01-20T14:52:53.207Z,14.35
2019-01-20T14:55:22.110Z,14.10
2019-01-20T14:57:50.772Z,13.80
2019-01-20T15:00:24.943Z,13.15
2019-01-20T15:02:53.579Z,12.70
2019-01-20T15:05:22.179Z,18.62
2019-01-20T15:07:50.743Z,14.15
2019-01-20T15:10:19.475Z,15.08
2019-01-20T15:12:48.039Z,13.75
2019-01-20T15:15:19.764Z,14.05
2019-01-20T15:17:48.335Z,13.95
2019-01-20T15:20:17.184Z,12.65
2019-01-20T15:22:45.818Z,15.98
2019-01-20T15:25:16.622Z,13.88
2019-01-20T15:27:45.262Z,16.40
2019-01-20T15:30:17.830Z,12.60
2019-01-20T15:32:46.602Z,14.40
2019-01-20T15:35:15.194Z,13.70
2019-01-20T15:37:43.764Z,27.65
2019-01-20T15:40:21.093Z,20.65
2019-01-20T15:43:00.332Z,16.70
2019-01-20T15:45:28.850Z,14.47
2019-01-20T15:47:57.423Z,14.78
2019-01-20T15:50:28.631Z,12.85
2019-01-20T15:52:57.267Z,14.55
2019-01-20T15:55:25.858Z,15.13
2019-01-20T15:57:54.436Z,16.02
2019-01-20T16:00:28.555Z,13.25
2019-01-20T16:02:57.563Z,14.28
2019-01-20T16:05:27.094Z,12.65
2019-01-20T16:07:55.834Z,13.55
2019-01-20T16:10:25.418Z,11.68
2019-01-20T16:12:54.243Z,16.80
2019-01-20T16:15:31.263Z,12.85
2019-01-20T16:17:59.826Z,13.25
2019-01-20T16:20:29.263Z,14.50
2019-01-20T16:22:58.175Z,14.50
2019-01-20T16:25:29.502Z,13.55
2019-01-20T16:27:58.071Z,14.55
2019-01-20T16:30:29.298Z,16.23
2019-01-20T16:32:57.872Z,15.15
2019-01-20T16:35:27.162Z,13.72
2019-01-20T16:37:57.066Z,14.20
2019-01-20T16:40:25.932Z,16.10
2019-01-20T16:42:54.567Z,14.15
2019-01-20T16:45:31.916Z,13.78
2019-01-20T16:47:56.598Z,15.18
2019-01-20T16:50:25.663Z,14.78
2019-01-20T16:52:54.960Z,13.90
2019-01-20T16:55:23.567Z,15.50
2019-01-20T16:57:52.407Z,17.15
2019-01-20T17:00:27.099Z,16.93
2019-01-20T17:02:55.672Z,15.88
2019-01-20T17:05:26.759Z,18.00
2019-01-20T17:07:54.478Z,26.45
2019-01-20T17:10:28.431Z,21.00
2019-01-20T17:12:57.067Z,18.90
2019-01-20T17:15:28.014Z,21.52
2019-01-20T17:17:56.583Z,23.77
2019-01-20T17:20:25.181Z,25.65
2019-01-20T17:22:53.814Z,27.65
2019-01-20T17:25:22.418Z,25.70
2019-01-20T17:27:50.974Z,24.87
2019-01-20T17:30:31.638Z,22.55
2019-01-20T17:33:00.207Z,18.57
2019-01-20T17:35:28.852Z,21.82
2019-01-20T17:37:57.377Z,26.25
2019-01-20T17:40:27.904Z,26.87
2019-01-20T17:42:56.650Z,28.75
2019-01-20T17:45:28.050Z,30.95
2019-01-20T17:47:56.687Z,23.38
2019-01-20T17:50:27.819Z,24.47
2019-01-20T17:52:56.393Z,22.13
2019-01-20T17:55:25.155Z,22.52
2019-01-20T17:57:53.714Z,21.82
2019-01-20T18:00:29.066Z,20.72
2019-01-20T18:02:57.666Z,25.23
2019-01-20T18:05:26.418Z,22.00
2019-01-20T18:07:54.992Z,22.90
2019-01-20T18:10:23.580Z,17.23
2019-01-20T18:12:53.401Z,23.30
2019-01-20T18:15:26.505Z,28.73
2019-01-20T18:17:55.238Z,20.12
2019-01-20T18:20:31.725Z,21.40
2019-01-20T18:23:00.426Z,22.02
2019-01-20T18:25:29.159Z,22.27
2019-01-20T18:27:57.878Z,18.52
2019-01-20T18:30:28.604Z,19.57
2019-01-20T18:32:57.234Z,20.48
2019-01-20T18:35:27.170Z,19.80
2019-01-20T18:37:55.812Z,19.37
2019-01-20T18:40:25.652Z,19.57
2019-01-20T18:42:54.359Z,20.72
2019-01-20T18:45:30.905Z,20.00
2019-01-20T18:47:59.466Z,21.80
2019-01-20T18:50:33.121Z,19.32
2019-01-20T18:53:01.687Z,25.55
2019-01-20T18:55:30.287Z,23.75
2019-01-20T18:57:58.967Z,26.23
2019-01-20T19:00:30.637Z,24.87
2019-01-20T19:02:59.205Z,23.60
2019-01-20T19:05:27.941Z,22.37
2019-01-20T19:07:56.506Z,23.57
2019-01-20T19:10:25.343Z,22.90
2019-01-20T19:12:53.903Z,22.70
2019-01-20T19:15:24.156Z,22.30
2019-01-20T19:17:52.890Z,21.68
2019-01-20T19:20:25.816Z,23.52
2019-01-20T19:22:56.349Z,26.00
2019-01-20T19:25:25.447Z,25.15
2019-01-20T19:27:54.079Z,27.80
2019-01-20T19:30:28.440Z,25.05
2019-01-20T19:32:57.003Z,26.30
2019-01-20T19:35:26.035Z,27.05
2019-01-20T19:37:54.674Z,25.48
2019-01-20T19:40:25.227Z,27.13
2019-01-20T19:42:53.843Z,27.77
2019-01-20T19:45:22.461Z,27.42
2019-01-20T19:47:51.099Z,27.75
2019-01-20T19:50:19.778Z,26.50
2019-01-20T19:52:48.415Z,28.55
2019-01-20T19:55:19.630Z,28.00
2019-01-20T19:57:48.340Z,26.85
2019-01-20T20:00:19.831Z,26.15
2019-01-20T20:02:48.479Z,24.35
2019-01-20T20:05:18.704Z,27.85
2019-01-20T20:07:47.921Z,29.82
2019-01-20T20:10:21.894Z,29.40
2019-01-20T20:12:50.532Z,26.97
2019-01-20T20:15:21.268Z,27.35
2019-01-20T20:17:49.970Z,26.45
2019-01-20T20:20:19.887Z,27.65
2019-01-20T20:22:48.611Z,33.42
2019-01-20T20:25:19.019Z,29.23
2019-01-20T20:27:47.610Z,26.37
2019-01-20T20:30:21.659Z,26.25
2019-01-20T20:32:50.251Z,27.22
2019-01-20T20:35:18.887Z,26.73
2019-01-20T20:37:47.481Z,28.30
2019-01-20T20:40:17.883Z,24.32
2019-01-20T20:42:46.491Z,24.05
2019-01-20T20:45:17.854Z,23.12
2019-01-20T20:47:46.440Z,25.10
2019-01-20T20:50:16.650Z,23.80
2019-01-20T20:52:46.209Z,22.07
2019-01-20T20:55:14.953Z,25.30
2019-01-20T20:57:43.676Z,22.30
2019-01-20T21:00:20.947Z,24.70
2019-01-20T21:02:49.534Z,23.05
2019-01-20T21:05:18.107Z,24.15
2019-01-20T21:07:46.766Z,21.80
2019-01-20T21:10:17.183Z,22.77
2019-01-20T21:12:45.843Z,22.90
2019-01-20T21:15:16.154Z,23.35
2019-01-20T21:17:48.233Z,22.75
2019-01-20T21:20:20.240Z,21.93
2019-01-20T21:22:48.873Z,23.05
2019-01-20T21:25:17.489Z,23.35
2019-01-20T21:27:46.074Z,22.10
2019-01-20T21:30:17.362Z,27.52
2019-01-20T21:32:46.019Z,24.90
2019-01-20T21:35:14.722Z,23.62
2019-01-20T21:37:43.312Z,27.85
2019-01-20T21:40:14.224Z,23.83
2019-01-20T21:42:42.820Z,23.70
2019-01-20T21:45:13.020Z,24.63
2019-01-20T21:47:41.615Z,22.85
2019-01-20T21:50:21.156Z,24.65
2019-01-20T21:52:49.824Z,25.37
2019-01-20T21:55:18.400Z,26.07
2019-01-20T21:57:47.059Z,25.75
2019-01-20T22:00:26.570Z,25.57
2019-01-20T22:02:55.162Z,25.95
2019-01-20T22:05:23.790Z,24.18
2019-01-20T22:07:52.387Z,25.43
2019-01-20T22:10:22.697Z,26.30
2019-01-20T22:12:51.351Z,25.90
2019-01-20T22:15:19.987Z,26.25
2019-01-20T22:17:49.055Z,26.40
2019-01-20T22:20:21.974Z,25.72
2019-01-20T22:22:51.150Z,24.18
2019-01-20T22:25:19.727Z,26.10
2019-01-20T22:27:48.319Z,26.05
2019-01-20T22:30:21.827Z,25.65
2019-01-20T22:32:50.495Z,26.00
2019-01-20T22:35:19.141Z,26.05
2019-01-20T22:37:47.823Z,25.15
2019-01-20T22:40:18.158Z,25.95
2019-01-20T22:42:46.971Z,25.23
2019-01-20T22:45:20.727Z,25.70
2019-01-20T22:47:49.318Z,24.60
2019-01-20T22:50:18.222Z,24.43
2019-01-20T22:52:46.867Z,24.02
2019-01-20T22:55:16.884Z,23.70
2019-01-20T22:57:45.770Z,23.42
2019-01-20T23:00:27.891Z,23.90
2019-01-20T23:02:56.486Z,22.62
2019-01-20T23:05:25.118Z,23.38
2019-01-20T23:07:53.736Z,22.27
2019-01-20T23:10:22.304Z,23.32
2019-01-20T23:12:50.897Z,21.97
2019-01-20T23:15:19.467Z,23.42
2019-01-20T23:17:48.079Z,22.80
2019-01-20T23:20:18.051Z,22.87
2019-01-20T23:22:46.655Z,22.07
2019-01-20T23:25:15.264Z,22.95
2019-01-20T23:27:43.947Z,23.67
2019-01-20T23:30:16.788Z,23.12
2019-01-20T23:32:45.363Z,22.25
2019-01-20T23:35:14.103Z,22.65
2019-01-20T23:37:42.770Z,22.25
2019-01-20T23:40:15.463Z,24.60
2019-01-20T23:42:44.059Z,22.85
2019-01-20T23:45:13.210Z,24.92
2019-01-20T23:47:41.834Z,23.83
2019-01-20T23:50:12.523Z,23.70
2019-01-20T23:52:41.204Z,23.60
2019-01-20T23:55:11.391Z,23.20
2019-01-20T23:57:40.095Z,23.18
